Time;durP1;ratioP1;P1;durP2;ratioP2;P2;SDS_P1;SDS_P2;PMS_P1;PMS_P2;Temp;Humidity;BMP_temperature;BMP_pressure;BME280_temperature;BME280_humidity;BME280_pressure;Samples;Min_cycle;Max_cycle;Signal;HPM_P1;HPM_P2
2022/03/17 00:00:14;;;;;;;32.22;18.27;;;;;;;;;;5072738;28;20476;-42
2022/03/17 00:02:40;;;;;;;30.35;18.98;;;;;;;;;;5072771;28;20033;-39
2022/03/17 00:05:08;;;;;;;35.67;18.15;;;;;;;;;;5072751;28;20029;-39
2022/03/17 00:07:39;;;;;;;29.95;18.25;;;;;;;;;;5071230;28;20029;-39
2022/03/17 00:10:10;;;;;;;34.08;19.42;;;;;;;;;;5072420;28;20572;-39
2022/03/17 00:12:35;;;;;;;36.50;19.48;;;;;;;;;;5072471;28;20033;-39
2022/03/17 00:15:02;;;;;;;37.92;20.38;;;;;;;;;;5072681;28;20562;-39
2022/03/17 00:17:28;;;;;;;35.22;19.38;;;;;;;;;;5072560;28;20032;-40
2022/03/17 00:19:53;;;;;;;30.77;19.42;;;;;;;;;;5071326;28;20036;-42
2022/03/17 00:22:19;;;;;;;35.58;19.20;;;;;;;;;;5070088;28;20112;-38
2022/03/17 00:24:44;;;;;;;34.05;19.63;;;;;;;;;;5070500;28;20032;-38
2022/03/17 00:27:10;;;;;;;29.65;18.10;;;;;;;;;;5070542;28;20063;-38
2022/03/17 00:29:38;;;;;;;32.88;18.52;;;;;;;;;;5070113;28;20048;-38
2022/03/17 00:32:04;;;;;;;34.42;18.30;;;;;;;;;;5070601;28;20074;-43
2022/03/17 00:34:30;;;;;;;34.40;18.63;;;;;;;;;;5070464;28;20021;-40
2022/03/17 00:36:56;;;;;;;29.92;16.90;;;;;;;;;;5070152;28;20091;-39
2022/03/17 00:39:21;;;;;;;29.33;17.88;;;;;;;;;;5070266;28;20032;-45
2022/03/17 00:41:47;;;;;;;27.02;16.60;;;;;;;;;;5070342;28;20097;-39
2022/03/17 00:44:14;;;;;;;37.22;19.85;;;;;;;;;;5070266;28;20103;-38
2022/03/17 00:46:40;;;;;;;31.73;17.55;;;;;;;;;;5070283;28;20031;-39
2022/03/17 00:49:06;;;;;;;28.08;17.40;;;;;;;;;;5070280;28;20021;-40
2022/03/17 00:51:31;;;;;;;32.17;18.48;;;;;;;;;;5070397;28;20108;-39
2022/03/17 00:53:57;;;;;;;35.45;19.48;;;;;;;;;;5070210;28;20035;-38
2022/03/17 00:56:23;;;;;;;39.72;21.92;;;;;;;;;;5070129;28;20071;-38
2022/03/17 00:58:49;;;;;;;38.78;22.60;;;;;;;;;;5070397;28;20021;-41
2022/03/17 01:01:18;;;;;;;46.13;26.55;;;;;;;;;;5070263;28;20020;-41
2022/03/17 01:03:44;;;;;;;45.67;26.20;;;;;;;;;;5073343;28;20115;-38
2022/03/17 01:06:10;;;;;;;39.50;22.30;;;;;;;;;;5073819;28;20032;-39
2022/03/17 01:08:36;;;;;;;35.60;19.40;;;;;;;;;;5073916;28;20032;-39
2022/03/17 01:11:03;;;;;;;32.53;18.23;;;;;;;;;;5073791;28;20035;-38
2022/03/17 01:13:29;;;;;;;29.83;17.88;;;;;;;;;;5073430;28;20040;-41
2022/03/17 01:15:54;;;;;;;32.53;18.27;;;;;;;;;;5073747;28;20044;-38
2022/03/17 01:18:21;;;;;;;32.13;17.50;;;;;;;;;;5073799;28;20438;-39
2022/03/17 01:20:47;;;;;;;31.45;18.17;;;;;;;;;;5073735;28;20024;-39
2022/03/17 01:23:13;;;;;;;32.33;18.17;;;;;;;;;;5073416;28;20020;-39
2022/03/17 01:25:38;;;;;;;33.03;18.60;;;;;;;;;;5073390;28;20043;-40
2022/03/17 01:28:07;;;;;;;31.25;18.08;;;;;;;;;;5073713;28;20031;-41
2022/03/17 01:30:35;;;;;;;28.88;17.48;;;;;;;;;;5073671;28;20098;-42
2022/03/17 01:33:00;;;;;;;31.77;18.42;;;;;;;;;;5073477;28;20491;-42
2022/03/17 01:35:26;;;;;;;34.92;19.13;;;;;;;;;;5073964;28;20037;-40
2022/03/17 01:37:51;;;;;;;33.08;18.13;;;;;;;;;;5075182;28;20021;-40
2022/03/17 01:40:17;;;;;;;30.05;17.33;;;;;;;;;;5075193;28;20087;-41
2022/03/17 01:42:43;;;;;;;32.38;18.30;;;;;;;;;;5075179;28;20028;-41
2022/03/17 01:45:09;;;;;;;29.75;17.00;;;;;;;;;;5075186;28;20112;-38
2022/03/17 01:47:36;;;;;;;29.45;18.00;;;;;;;;;;5074809;28;20043;-43
2022/03/17 01:50:09;;;;;;;34.42;18.45;;;;;;;;;;5073524;28;20029;-41
2022/03/17 01:52:35;;;;;;;32.55;18.48;;;;;;;;;;5074771;28;20086;-42
2022/03/17 01:55:02;;;;;;;31.55;18.17;;;;;;;;;;5074973;28;20114;-41
2022/03/17 01:57:28;;;;;;;31.45;18.10;;;;;;;;;;5074589;28;20468;-40
2022/03/17 01:59:53;;;;;;;31.83;17.98;;;;;;;;;;5074872;28;20024;-40
2022/03/17 02:02:19;;;;;;;34.40;18.77;;;;;;;;;;5074914;28;20486;-40
2022/03/17 02:04:46;;;;;;;29.90;18.15;;;;;;;;;;5056577;28;20094;-45
2022/03/17 02:07:14;;;;;;;34.40;18.70;;;;;;;;;;5074773;28;20103;-41
2022/03/17 02:09:41;;;;;;;29.80;19.05;;;;;;;;;;5074676;28;20017;-43
2022/03/17 02:14:51;;;;;;;34.10;19.35;;;;;;;;;;5074100;28;20110;-39
2022/03/17 02:17:18;;;;;;;31.27;18.73;;;;;;;;;;5074222;28;20064;-39
2022/03/17 02:19:44;;;;;;;31.67;18.75;;;;;;;;;;5074225;28;20025;-39
2022/03/17 02:22:12;;;;;;;32.30;17.70;;;;;;;;;;5074410;28;20032;-39
2022/03/17 02:27:28;;;;;;;30.60;18.45;;;;;;;;;;5074259;28;20032;-43
2022/03/17 02:29:53;;;;;;;34.00;18.92;;;;;;;;;;5074333;28;20044;-39
2022/03/17 02:32:20;;;;;;;35.03;18.85;;;;;;;;;;5074212;28;20067;-40
2022/03/17 02:34:46;;;;;;;29.75;16.77;;;;;;;;;;5074149;28;20028;-40
2022/03/17 02:37:12;;;;;;;27.05;14.60;;;;;;;;;;5073916;28;20078;-39
2022/03/17 02:39:39;;;;;;;31.52;17.60;;;;;;;;;;5074105;28;20075;-39
2022/03/17 02:42:05;;;;;;;31.50;17.65;;;;;;;;;;5073805;28;20040;-39
2022/03/17 02:44:32;;;;;;;30.73;16.65;;;;;;;;;;5073669;28;20036;-39
2022/03/17 02:46:57;;;;;;;34.22;18.48;;;;;;;;;;5073627;28;20145;-42
2022/03/17 02:49:23;;;;;;;35.80;19.90;;;;;;;;;;5073629;28;20108;-39
2022/03/17 02:51:49;;;;;;;33.00;19.50;;;;;;;;;;5073441;28;20035;-39
2022/03/17 02:54:14;;;;;;;31.50;18.33;;;;;;;;;;5073516;28;20029;-40
2022/03/17 02:56:40;;;;;;;32.88;19.17;;;;;;;;;;5073746;28;20028;-39
2022/03/17 02:59:05;;;;;;;29.13;18.00;;;;;;;;;;5073732;28;20468;-40
2022/03/17 03:01:31;;;;;;;38.50;20.35;;;;;;;;;;5073689;28;20025;-40
2022/03/17 03:03:56;;;;;;;32.15;18.92;;;;;;;;;;5073315;28;20032;-45
2022/03/17 03:06:22;;;;;;;31.02;19.10;;;;;;;;;;5073568;28;20036;-42
2022/03/17 03:08:47;;;;;;;35.13;20.40;;;;;;;;;;5073515;28;20471;-43
2022/03/17 03:11:13;;;;;;;32.60;20.05;;;;;;;;;;5073157;28;20029;-41
2022/03/17 03:13:38;;;;;;;33.85;19.73;;;;;;;;;;5072986;28;20127;-42
2022/03/17 03:16:04;;;;;;;44.45;20.75;;;;;;;;;;5073034;28;20056;-40
2022/03/17 03:18:29;;;;;;;38.20;19.90;;;;;;;;;;5073049;28;20025;-41
2022/03/17 03:20:55;;;;;;;33.83;20.15;;;;;;;;;;5073275;28;20024;-41
2022/03/17 03:23:20;;;;;;;35.38;19.77;;;;;;;;;;5072966;28;20093;-41
2022/03/17 03:25:46;;;;;;;33.65;20.00;;;;;;;;;;5072430;28;20107;-39
2022/03/17 03:28:12;;;;;;;34.55;20.65;;;;;;;;;;5073133;28;20031;-39
2022/03/17 03:30:38;;;;;;;38.95;21.30;;;;;;;;;;5072715;28;20549;-41
2022/03/17 03:33:08;;;;;;;36.33;19.80;;;;;;;;;;5054878;28;20036;-43
2022/03/17 03:38:21;;;;;;;37.35;21.00;;;;;;;;;;5071747;28;20120;-40
2022/03/17 03:40:46;;;;;;;41.50;21.38;;;;;;;;;;5071554;28;20056;-39
2022/03/17 03:43:12;;;;;;;33.53;18.98;;;;;;;;;;5071174;28;20135;-39
2022/03/17 03:45:37;;;;;;;35.38;20.30;;;;;;;;;;5071269;28;20032;-39
2022/03/17 03:48:03;;;;;;;36.03;19.83;;;;;;;;;;5072886;28;20419;-41
2022/03/17 03:50:30;;;;;;;36.42;19.27;;;;;;;;;;5072811;28;20016;-42
2022/03/17 03:52:56;;;;;;;38.80;19.17;;;;;;;;;;5072601;28;20062;-40
2022/03/17 03:55:22;;;;;;;33.92;19.42;;;;;;;;;;5072653;28;20075;-40
2022/03/17 03:57:48;;;;;;;35.22;20.13;;;;;;;;;;5072511;28;20479;-40
2022/03/17 04:02:58;;;;;;;40.22;20.45;;;;;;;;;;5072497;28;20016;-39
2022/03/17 04:05:36;;;;;;;34.38;19.52;;;;;;;;;;5072464;28;20376;-40
2022/03/17 04:08:02;;;;;;;34.42;19.10;;;;;;;;;;5072710;28;20078;-41
2022/03/17 04:10:28;;;;;;;36.42;20.35;;;;;;;;;;5072363;28;20056;-42
2022/03/17 04:12:54;;;;;;;37.45;19.02;;;;;;;;;;5072450;28;20086;-39
2022/03/17 04:15:20;;;;;;;37.78;18.48;;;;;;;;;;5072335;28;20483;-42
2022/03/17 04:17:46;;;;;;;35.85;21.05;;;;;;;;;;5072433;28;20031;-39
2022/03/17 04:20:11;;;;;;;33.15;19.15;;;;;;;;;;5072595;28;20025;-42
2022/03/17 04:22:37;;;;;;;36.58;19.90;;;;;;;;;;5072469;28;20054;-40
2022/03/17 04:25:03;;;;;;;37.45;19.88;;;;;;;;;;5072530;28;20028;-41
2022/03/17 04:27:29;;;;;;;39.72;20.83;;;;;;;;;;5072273;28;20089;-43
2022/03/17 04:29:55;;;;;;;47.10;23.17;;;;;;;;;;5072452;28;20021;-41
2022/03/17 04:32:21;;;;;;;42.78;22.95;;;;;;;;;;5072332;28;20112;-40
2022/03/17 04:34:46;;;;;;;38.78;21.10;;;;;;;;;;5072248;28;20032;-40
2022/03/17 04:37:12;;;;;;;37.67;21.02;;;;;;;;;;5073136;28;20024;-41
2022/03/17 04:39:37;;;;;;;36.42;21.98;;;;;;;;;;5076406;28;20115;-44
2022/03/17 04:42:03;;;;;;;40.92;21.80;;;;;;;;;;5076050;28;20100;-43
2022/03/17 04:44:29;;;;;;;42.08;20.58;;;;;;;;;;5058356;28;20025;-44
2022/03/17 04:46:54;;;;;;;37.83;21.67;;;;;;;;;;5075976;28;20455;-42
2022/03/17 04:49:20;;;;;;;33.60;20.15;;;;;;;;;;5075894;28;20036;-40
2022/03/17 04:51:45;;;;;;;35.38;20.15;;;;;;;;;;5075750;28;20089;-40
2022/03/17 04:54:11;;;;;;;37.10;19.88;;;;;;;;;;5075800;28;20052;-41
2022/03/17 04:56:36;;;;;;;41.30;21.35;;;;;;;;;;5075766;28;20021;-40
2022/03/17 04:59:02;;;;;;;40.55;21.00;;;;;;;;;;5075983;28;20036;-39
2022/03/17 05:01:27;;;;;;;55.75;30.20;;;;;;;;;;5075717;28;20040;-39
2022/03/17 05:03:53;;;;;;;51.45;23.65;;;;;;;;;;5075611;28;20035;-40
2022/03/17 05:06:19;;;;;;;59.13;23.08;;;;;;;;;;5075827;28;20064;-41
2022/03/17 05:08:45;;;;;;;52.70;21.20;;;;;;;;;;5075397;28;20116;-40
2022/03/17 05:11:13;;;;;;;40.58;21.48;;;;;;;;;;5075380;28;20029;-40
2022/03/17 05:13:43;;;;;;;37.72;20.67;;;;;;;;;;5075154;28;20665;-41
2022/03/17 05:16:09;;;;;;;38.47;21.83;;;;;;;;;;5075347;28;20028;-39
2022/03/17 05:18:36;;;;;;;39.67;22.27;;;;;;;;;;5075256;28;20039;-42
2022/03/17 05:21:02;;;;;;;35.67;20.63;;;;;;;;;;5075227;28;20090;-39
2022/03/17 05:23:30;;;;;;;25.92;14.25;;;;;;;;;;5075506;28;20040;-39
2022/03/17 05:25:56;;;;;;;17.02;11.10;;;;;;;;;;5075129;28;20025;-40
2022/03/17 05:28:21;;;;;;;21.38;12.20;;;;;;;;;;5074693;28;20032;-40
2022/03/17 05:30:47;;;;;;;24.45;13.65;;;;;;;;;;5075206;28;20035;-39
2022/03/17 05:33:13;;;;;;;24.95;14.52;;;;;;;;;;5074921;28;20025;-41
2022/03/17 05:35:40;;;;;;;37.33;19.48;;;;;;;;;;5057096;28;20039;-39
2022/03/17 05:38:05;;;;;;;40.22;20.13;;;;;;;;;;5074973;28;20031;-42
2022/03/17 05:40:31;;;;;;;36.95;20.17;;;;;;;;;;5074907;28;20032;-43
2022/03/17 05:42:59;;;;;;;36.03;20.67;;;;;;;;;;5074844;28;20066;-43
2022/03/17 05:45:26;;;;;;;32.75;17.75;;;;;;;;;;5073934;28;20067;-43
2022/03/17 05:47:56;;;;;;;22.35;13.60;;;;;;;;;;5073000;28;20036;-39
2022/03/17 05:50:24;;;;;;;21.75;13.52;;;;;;;;;;5073546;28;20029;-39
2022/03/17 05:52:50;;;;;;;34.17;18.88;;;;;;;;;;5074308;28;20075;-39
2022/03/17 05:55:17;;;;;;;34.70;19.75;;;;;;;;;;5074581;28;20368;-43
2022/03/17 05:57:45;;;;;;;35.25;20.95;;;;;;;;;;5074752;28;20119;-44
2022/03/17 06:00:13;;;;;;;37.53;20.98;;;;;;;;;;5074740;28;20052;-40
2022/03/17 06:02:39;;;;;;;42.95;24.00;;;;;;;;;;5074708;28;20021;-45
2022/03/17 06:05:06;;;;;;;36.30;22.63;;;;;;;;;;5074403;28;20047;-40
2022/03/17 06:07:40;;;;;;;34.67;21.38;;;;;;;;;;5074212;28;20032;-39
2022/03/17 06:10:08;;;;;;;37.33;21.95;;;;;;;;;;5056308;28;20021;-39
2022/03/17 06:12:34;;;;;;;37.63;23.38;;;;;;;;;;5074373;28;20031;-40
2022/03/17 06:15:02;;;;;;;46.72;24.38;;;;;;;;;;5074424;28;20025;-42
2022/03/17 06:17:44;;;;;;;40.78;22.80;;;;;;;;;;5074541;28;20024;-41
2022/03/17 06:20:12;;;;;;;43.78;24.13;;;;;;;;;;5074207;28;20025;-41
2022/03/17 06:22:45;;;;;;;38.30;23.67;;;;;;;;;;5074142;28;20506;-42
2022/03/17 06:25:14;;;;;;;41.30;23.30;;;;;;;;;;5073940;28;20035;-39
2022/03/17 06:27:40;;;;;;;40.75;24.98;;;;;;;;;;5074155;28;20069;-39
2022/03/17 06:30:09;;;;;;;41.53;24.85;;;;;;;;;;5073781;28;20093;-42
2022/03/17 06:32:35;;;;;;;41.13;23.92;;;;;;;;;;5073950;28;20103;-40
2022/03/17 06:35:01;;;;;;;36.72;22.90;;;;;;;;;;5073908;28;20181;-40
2022/03/17 06:37:26;;;;;;;38.08;22.55;;;;;;;;;;5074117;28;20021;-37
2022/03/17 06:39:53;;;;;;;44.55;23.15;;;;;;;;;;5073737;28;20032;-42
2022/03/17 06:42:20;;;;;;;41.65;22.88;;;;;;;;;;5072591;28;20025;-38
2022/03/17 06:44:45;;;;;;;18.48;12.43;;;;;;;;;;5071884;28;20032;-38
2022/03/17 06:47:10;;;;;;;28.98;14.50;;;;;;;;;;5073023;28;20150;-37
2022/03/17 06:49:36;;;;;;;42.80;24.63;;;;;;;;;;5073728;28;20361;-39
2022/03/17 06:52:01;;;;;;;61.00;37.10;;;;;;;;;;5073288;28;20491;-42
2022/03/17 06:54:27;;;;;;;42.53;25.40;;;;;;;;;;5073411;28;20487;-38
2022/03/17 06:56:52;;;;;;;56.15;33.30;;;;;;;;;;5073654;28;20680;-37
2022/03/17 06:59:18;;;;;;;77.47;45.72;;;;;;;;;;5073023;28;20629;-41
2022/03/17 07:01:43;;;;;;;53.63;29.15;;;;;;;;;;5073209;28;20398;-40
2022/03/17 07:04:08;;;;;;;56.40;29.42;;;;;;;;;;5073203;28;20463;-40
2022/03/17 07:06:34;;;;;;;43.22;23.67;;;;;;;;;;5073369;28;20056;-41
2022/03/17 07:08:59;;;;;;;82.90;45.13;;;;;;;;;;5073058;28;20470;-39
2022/03/17 07:11:25;;;;;;;64.03;33.13;;;;;;;;;;5072942;28;20089;-38
2022/03/17 07:13:50;;;;;;;58.88;32.28;;;;;;;;;;5072955;28;20040;-38
2022/03/17 07:16:18;;;;;;;69.10;33.90;;;;;;;;;;5073021;28;20028;-40
2022/03/17 07:18:43;;;;;;;73.63;34.08;;;;;;;;;;5072786;28;20029;-40
2022/03/17 07:21:09;;;;;;;75.32;41.85;;;;;;;;;;5072917;28;20032;-45
2022/03/17 07:23:34;;;;;;;72.60;43.63;;;;;;;;;;5072642;28;20028;-48
2022/03/17 07:25:59;;;;;;;73.95;42.33;;;;;;;;;;5073043;28;20024;-44
2022/03/17 07:28:25;;;;;;;71.35;40.70;;;;;;;;;;5071265;28;20031;-47
2022/03/17 07:30:51;;;;;;;74.53;44.63;;;;;;;;;;5072659;28;20035;-40
2022/03/17 07:33:16;;;;;;;76.38;44.40;;;;;;;;;;5072626;28;20032;-42
2022/03/17 07:35:42;;;;;;;54.38;27.58;;;;;;;;;;5072957;28;20166;-43
2022/03/17 07:38:08;;;;;;;51.70;30.98;;;;;;;;;;5072878;28;20116;-46
2022/03/17 07:40:33;;;;;;;46.50;25.67;;;;;;;;;;5072231;28;20103;-51
2022/03/17 07:43:00;;;;;;;49.60;26.67;;;;;;;;;;5072577;28;20063;-49
2022/03/17 07:45:27;;;;;;;41.42;23.05;;;;;;;;;;5072299;28;20024;-48
2022/03/17 07:47:52;;;;;;;46.97;24.13;;;;;;;;;;5072604;28;20426;-49
2022/03/17 07:50:19;;;;;;;32.55;18.95;;;;;;;;;;5072416;28;20024;-51
2022/03/17 07:52:45;;;;;;;33.28;20.80;;;;;;;;;;5072527;28;20103;-46
2022/03/17 07:55:11;;;;;;;25.17;14.82;;;;;;;;;;5072709;28;20103;-44
2022/03/17 07:57:40;;;;;;;47.55;27.45;;;;;;;;;;5072423;28;20024;-49
2022/03/17 08:00:08;;;;;;;48.80;27.88;;;;;;;;;;5072194;28;20030;-47
2022/03/17 08:02:34;;;;;;;34.47;17.92;;;;;;;;;;5072261;28;20491;-44
2022/03/17 08:05:03;;;;;;;42.92;24.33;;;;;;;;;;5072304;28;20024;-47
2022/03/17 08:07:29;;;;;;;53.35;31.10;;;;;;;;;;5054484;28;20028;-47
2022/03/17 08:09:55;;;;;;;54.00;30.20;;;;;;;;;;5072104;28;20029;-42
2022/03/17 08:12:22;;;;;;;68.07;38.75;;;;;;;;;;5072011;28;20025;-48
2022/03/17 08:14:50;;;;;;;68.50;40.17;;;;;;;;;;5071904;28;20079;-48
2022/03/17 08:17:15;;;;;;;68.15;31.17;;;;;;;;;;5072457;28;20024;-48
2022/03/17 08:19:41;;;;;;;57.15;32.03;;;;;;;;;;5071984;28;20074;-44
2022/03/17 08:22:06;;;;;;;62.08;38.22;;;;;;;;;;5071908;28;20035;-48
2022/03/17 08:24:32;;;;;;;56.17;33.60;;;;;;;;;;5071860;28;20025;-46
2022/03/17 08:26:57;;;;;;;51.28;29.90;;;;;;;;;;5071927;28;20024;-46
2022/03/17 08:29:22;;;;;;;41.55;25.23;;;;;;;;;;5072209;28;20025;-47
2022/03/17 08:31:48;;;;;;;49.03;28.52;;;;;;;;;;5071922;28;20517;-45
2022/03/17 08:34:13;;;;;;;66.55;40.97;;;;;;;;;;5071825;28;20089;-46
2022/03/17 08:36:39;;;;;;;34.40;20.30;;;;;;;;;;5071861;28;20017;-44
2022/03/17 08:39:05;;;;;;;40.40;25.33;;;;;;;;;;5071898;28;20028;-46
2022/03/17 08:41:31;;;;;;;33.95;20.65;;;;;;;;;;5071859;28;20029;-44
2022/03/17 08:43:56;;;;;;;31.15;17.85;;;;;;;;;;5071929;28;20064;-44
2022/03/17 08:49:24;;;;;;;48.22;25.67;;;;;;;;;;5071834;28;20036;-51
2022/03/17 08:51:55;;;;;;;63.47;39.35;;;;;;;;;;5072091;28;20044;-40
2022/03/17 08:54:23;;;;;;;53.13;31.63;;;;;;;;;;5072064;28;20111;-41
2022/03/17 08:56:59;;;;;;;26.02;16.13;;;;;;;;;;5071330;28;20422;-39
2022/03/17 08:59:25;;;;;;;55.92;35.70;;;;;;;;;;5071751;28;20028;-49
2022/03/17 09:01:51;;;;;;;33.55;21.10;;;;;;;;;;5071866;28;20108;-42
2022/03/17 09:04:16;;;;;;;55.60;35.00;;;;;;;;;;5071742;28;20056;-45
2022/03/17 09:06:43;;;;;;;47.35;25.70;;;;;;;;;;5071297;28;20025;-44
2022/03/17 09:09:09;;;;;;;59.78;35.60;;;;;;;;;;5071373;28;20024;-42
2022/03/17 09:11:34;;;;;;;32.13;19.05;;;;;;;;;;5070404;28;20452;-45
2022/03/17 09:14:01;;;;;;;61.88;39.70;;;;;;;;;;5070484;28;20080;-49
2022/03/17 09:16:27;;;;;;;76.22;44.63;;;;;;;;;;5071461;28;20123;-43
2022/03/17 09:18:52;;;;;;;95.07;46.40;;;;;;;;;;5071831;28;20111;-42
2022/03/17 09:21:18;;;;;;;57.38;35.58;;;;;;;;;;5071836;28;20032;-45
2022/03/17 09:23:43;;;;;;;67.70;42.58;;;;;;;;;;5073258;28;20081;-42
2022/03/17 09:26:09;;;;;;;42.08;24.92;;;;;;;;;;5075232;28;20115;-43
2022/03/17 09:28:35;;;;;;;63.13;37.97;;;;;;;;;;5075363;28;20023;-48
2022/03/17 09:31:00;;;;;;;60.78;38.60;;;;;;;;;;5075383;28;20110;-45
2022/03/17 09:33:26;;;;;;;56.50;31.77;;;;;;;;;;5075138;28;20025;-44
2022/03/17 09:35:53;;;;;;;59.75;41.30;;;;;;;;;;5075226;28;20027;-47
2022/03/17 09:38:19;;;;;;;136.07;39.65;;;;;;;;;;5075275;28;20033;-49
2022/03/17 09:40:45;;;;;;;63.33;39.60;;;;;;;;;;5074793;28;20115;-41
2022/03/17 09:43:19;;;;;;;39.40;23.48;;;;;;;;;;5074458;28;20163;-45
2022/03/17 09:45:56;;;;;;;59.72;36.63;;;;;;;;;;5074900;28;20024;-42
2022/03/17 09:48:23;;;;;;;55.45;32.95;;;;;;;;;;5074870;28;20035;-44
2022/03/17 09:50:55;;;;;;;63.03;35.80;;;;;;;;;;5074909;28;20024;-47
2022/03/17 09:53:23;;;;;;;46.00;30.33;;;;;;;;;;5074744;28;20028;-40
2022/03/17 09:55:50;;;;;;;51.35;31.92;;;;;;;;;;5074686;28;20484;-45
2022/03/17 09:58:16;;;;;;;59.08;34.08;;;;;;;;;;5074938;28;20024;-41
2022/03/17 10:00:48;;;;;;;58.88;40.22;;;;;;;;;;5074429;28;20499;-44
2022/03/17 10:03:25;;;;;;;55.30;32.38;;;;;;;;;;5074761;28;20056;-42
2022/03/17 10:05:52;;;;;;;55.45;31.80;;;;;;;;;;5074373;28;20748;-43
2022/03/17 10:08:20;;;;;;;66.65;38.47;;;;;;;;;;5074663;28;20082;-42
2022/03/17 10:10:46;;;;;;;38.75;23.65;;;;;;;;;;5074543;28;20116;-42
2022/03/17 10:13:14;;;;;;;48.28;28.77;;;;;;;;;;5074339;28;20041;-41
2022/03/17 10:15:41;;;;;;;45.05;30.27;;;;;;;;;;5074513;28;20103;-43
2022/03/17 10:18:24;;;;;;;32.95;21.38;;;;;;;;;;5074304;28;20035;-40
2022/03/17 10:21:16;;;;;;;34.30;19.67;;;;;;;;;;5074357;28;20051;-43
2022/03/17 10:23:49;;;;;;;49.55;29.98;;;;;;;;;;5073995;28;20032;-45
2022/03/17 10:26:31;;;;;;;46.92;28.30;;;;;;;;;;5073935;28;20464;-45
2022/03/17 10:29:07;;;;;;;49.33;28.33;;;;;;;;;;5074275;28;20029;-43
2022/03/17 10:32:05;;;;;;;43.22;28.77;;;;;;;;;;5073696;28;20060;-46
2022/03/17 10:34:47;;;;;;;40.08;26.75;;;;;;;;;;5073226;28;20121;-44
2022/03/17 10:37:15;;;;;;;34.85;20.42;;;;;;;;;;5073382;28;20375;-45
2022/03/17 10:39:45;;;;;;;38.15;23.88;;;;;;;;;;5073981;28;20028;-48
2022/03/17 10:42:14;;;;;;;42.58;26.25;;;;;;;;;;5073654;28;20036;-45
2022/03/17 10:44:41;;;;;;;39.72;25.48;;;;;;;;;;5073793;28;20036;-45
2022/03/17 10:47:10;;;;;;;200.90;40.80;;;;;;;;;;5071377;28;20035;-43
2022/03/17 10:49:36;;;;;;;39.15;25.45;;;;;;;;;;5073702;28;20096;-44
2022/03/17 10:52:02;;;;;;;32.33;18.23;;;;;;;;;;5072358;28;20475;-42
2022/03/17 10:54:28;;;;;;;34.30;22.77;;;;;;;;;;5073402;28;20064;-49
2022/03/17 10:57:11;;;;;;;57.55;27.20;;;;;;;;;;5073376;28;20036;-43
2022/03/17 10:59:47;;;;;;;38.47;20.23;;;;;;;;;;5072683;28;20101;-46
2022/03/17 11:02:16;;;;;;;32.25;17.85;;;;;;;;;;5071582;28;20028;-46
2022/03/17 11:04:44;;;;;;;39.28;25.80;;;;;;;;;;5071848;28;20079;-46
2022/03/17 11:07:13;;;;;;;34.22;21.98;;;;;;;;;;5071847;28;20060;-42
2022/03/17 11:09:40;;;;;;;47.47;27.83;;;;;;;;;;5071998;28;20067;-42
2022/03/17 11:12:11;;;;;;;34.25;22.85;;;;;;;;;;5071670;28;20039;-39
2022/03/17 11:15:00;;;;;;;43.78;25.98;;;;;;;;;;5071353;28;20045;-40
2022/03/17 11:17:38;;;;;;;37.53;25.77;;;;;;;;;;5071419;28;20025;-40
2022/03/17 11:20:09;;;;;;;37.40;19.63;;;;;;;;;;5071155;28;20547;-42
2022/03/17 11:22:36;;;;;;;32.03;19.42;;;;;;;;;;5071505;28;20093;-41
2022/03/17 11:25:25;;;;;;;30.15;17.98;;;;;;;;;;5071384;28;20028;-39
2022/03/17 11:27:58;;;;;;;34.35;19.83;;;;;;;;;;5070959;28;20376;-40
2022/03/17 11:30:29;;;;;;;33.03;19.23;;;;;;;;;;5071211;28;20460;-41
2022/03/17 11:32:56;;;;;;;28.90;17.45;;;;;;;;;;5071149;28;20074;-45
2022/03/17 11:35:29;;;;;;;47.47;28.38;;;;;;;;;;5071265;28;20036;-41
2022/03/17 11:38:13;;;;;;;40.15;21.17;;;;;;;;;;5071175;28;20032;-40
2022/03/17 11:41:04;;;;;;;37.03;20.90;;;;;;;;;;5070949;28;20110;-41
2022/03/17 11:43:44;;;;;;;37.25;21.33;;;;;;;;;;5071361;28;20029;-43
2022/03/17 11:46:15;;;;;;;47.97;28.67;;;;;;;;;;5070907;28;20047;-41
2022/03/17 11:48:45;;;;;;;44.00;28.40;;;;;;;;;;5053117;28;20024;-46
2022/03/17 11:51:11;;;;;;;;;;;;;;;;;;5071472;28;20112;-44
2022/03/17 11:53:38;;;;;;;39.78;24.27;;;;;;;;;;5070934;28;19986;-45
2022/03/17 11:56:05;;;;;;;51.88;29.10;;;;;;;;;;5071020;28;20048;-42
2022/03/17 11:58:39;;;;;;;61.22;36.67;;;;;;;;;;5070864;28;20393;-47
2022/03/17 12:01:39;;;;;;;124.15;40.40;;;;;;;;;;5071013;28;20096;-43
2022/03/17 12:04:05;;;;;;;59.28;31.13;;;;;;;;;;5056254;28;20041;-43
2022/03/17 12:06:33;;;;;;;50.85;30.25;;;;;;;;;;5071056;28;20056;-44
2022/03/17 12:09:04;;;;;;;57.38;33.10;;;;;;;;;;5070721;28;20032;-42
2022/03/17 12:11:39;;;;;;;56.50;28.58;;;;;;;;;;5070985;28;20030;-42
2022/03/17 12:14:24;;;;;;;44.58;27.38;;;;;;;;;;5070054;28;20045;-45
2022/03/17 12:16:49;;;;;;;70.07;34.35;;;;;;;;;;5069269;28;20028;-43
2022/03/17 12:19:52;;;;;;;55.25;31.45;;;;;;;;;;5070964;28;20605;-42
2022/03/17 12:22:33;;;;;;;51.95;30.13;;;;;;;;;;5069913;28;20491;-45
2022/03/17 12:25:12;;;;;;;63.75;37.97;;;;;;;;;;5070625;28;20494;-45
2022/03/17 12:27:39;;;;;;;59.35;32.17;;;;;;;;;;5070847;28;20024;-43
2022/03/17 12:30:06;;;;;;;61.03;35.35;;;;;;;;;;5070765;28;20064;-42
2022/03/17 12:32:56;;;;;;;62.60;34.58;;;;;;;;;;5070160;28;20039;-45
2022/03/17 12:35:27;;;;;;;59.00;31.50;;;;;;;;;;5069818;28;20040;-46
2022/03/17 12:38:08;;;;;;;55.72;29.85;;;;;;;;;;5070709;28;20033;-48
2022/03/17 12:40:34;;;;;;;;;;;;;;;;;;5070741;28;20021;-44
2022/03/17 12:43:17;;;;;;;77.65;40.20;;;;;;;;;;5070141;28;20007;-50
2022/03/17 12:45:48;;;;;;;64.15;29.85;;;;;;;;;;5070517;28;20031;-49
2022/03/17 12:48:16;;;;;;;61.97;34.97;;;;;;;;;;5070612;28;20086;-45
2022/03/17 12:50:42;;;;;;;57.72;32.65;;;;;;;;;;5070138;28;20060;-44
2022/03/17 12:53:09;;;;;;;71.60;37.72;;;;;;;;;;5070387;28;20129;-43
2022/03/17 12:55:35;;;;;;;69.25;39.05;;;;;;;;;;5070318;28;20032;-46
2022/03/17 12:58:02;;;;;;;56.60;30.02;;;;;;;;;;5071036;28;20039;-45
2022/03/17 13:00:28;;;;;;;47.00;27.95;;;;;;;;;;5074067;28;20031;-46
2022/03/17 13:02:58;;;;;;;71.43;29.95;;;;;;;;;;5073985;28;20146;-42
2022/03/17 13:08:14;;;;;;;57.65;33.40;;;;;;;;;;5074106;28;20458;-47
2022/03/17 13:16:11;;;;;;;36.38;17.50;;;;;;;;;;5074018;28;20039;-46
2022/03/17 13:18:44;;;;;;;28.70;15.85;;;;;;;;;;5073677;28;20028;-42
2022/03/17 13:21:11;;;;;;;41.97;20.98;;;;;;;;;;5073378;28;20622;-48
2022/03/17 13:23:36;;;;;;;36.92;17.88;;;;;;;;;;5073656;28;20085;-45
2022/03/17 13:26:02;;;;;;;31.88;14.98;;;;;;;;;;5073688;28;20107;-46
2022/03/17 13:28:27;;;;;;;46.60;26.05;;;;;;;;;;5073193;28;20036;-47
2022/03/17 13:30:53;;;;;;;36.80;19.05;;;;;;;;;;5055094;28;20028;-43
2022/03/17 13:33:30;;;;;;;32.20;17.80;;;;;;;;;;5073396;28;20052;-46
2022/03/17 13:35:56;;;;;;;39.58;19.35;;;;;;;;;;5073743;28;20031;-41
2022/03/17 13:38:33;;;;;;;50.53;28.40;;;;;;;;;;5073172;28;20028;-47
2022/03/17 13:41:00;;;;;;;50.42;28.73;;;;;;;;;;5073666;28;20032;-46
2022/03/17 13:43:35;;;;;;;49.83;26.75;;;;;;;;;;5073513;28;20028;-47
2022/03/17 13:46:22;;;;;;;46.10;23.88;;;;;;;;;;5073038;28;20499;-46
2022/03/17 13:48:48;;;;;;;35.28;18.48;;;;;;;;;;5072578;28;20128;-44
2022/03/17 13:51:23;;;;;;;52.60;22.75;;;;;;;;;;5071993;28;20104;-46
2022/03/17 13:53:48;;;;;;;44.17;24.02;;;;;;;;;;5073278;28;20052;-44
2022/03/17 13:56:13;;;;;;;41.72;21.50;;;;;;;;;;5073341;28;20064;-47
2022/03/17 13:58:41;;;;;;;37.78;14.18;;;;;;;;;;5072102;28;20028;-42
2022/03/17 14:01:12;;;;;;;30.73;17.35;;;;;;;;;;5073212;28;20043;-49
2022/03/17 14:03:43;;;;;;;31.50;17.20;;;;;;;;;;5073204;28;20152;-47
2022/03/17 14:06:17;;;;;;;38.60;18.88;;;;;;;;;;5072921;28;20021;-46
2022/03/17 14:08:47;;;;;;;34.92;21.17;;;;;;;;;;5072707;28;20029;-45
2022/03/17 14:11:17;;;;;;;49.65;28.40;;;;;;;;;;5072920;28;20028;-48
2022/03/17 14:13:59;;;;;;;28.08;15.43;;;;;;;;;;5072748;28;20091;-48
2022/03/17 14:16:26;;;;;;;40.30;21.27;;;;;;;;;;5072670;28;20033;-47
2022/03/17 14:18:54;;;;;;;31.52;18.02;;;;;;;;;;5072789;28;20106;-47
2022/03/17 14:21:21;;;;;;;43.75;25.60;;;;;;;;;;5072749;28;20032;-49
2022/03/17 14:26:32;;;;;;;31.25;16.98;;;;;;;;;;5072800;28;20047;-47
2022/03/17 14:28:59;;;;;;;34.67;17.50;;;;;;;;;;5072395;28;20025;-44
2022/03/17 14:31:38;;;;;;;42.95;25.95;;;;;;;;;;5072358;28;20511;-50
2022/03/17 14:34:05;;;;;;;109.28;27.13;;;;;;;;;;5072627;28;20040;-49
2022/03/17 14:36:33;;;;;;;53.40;22.02;;;;;;;;;;5072681;28;20349;-48
2022/03/17 14:38:59;;;;;;;45.42;24.77;;;;;;;;;;5072072;28;20645;-49
2022/03/17 14:41:25;;;;;;;43.63;22.80;;;;;;;;;;5072253;28;20112;-46
2022/03/17 14:43:56;;;;;;;44.17;26.60;;;;;;;;;;5072232;28;20075;-46
2022/03/17 14:46:23;;;;;;;45.15;26.30;;;;;;;;;;5072532;28;20038;-44
2022/03/17 14:48:53;;;;;;;47.72;26.67;;;;;;;;;;5072006;28;20031;-43